createdAt,value
2018-09-27T03:41:47.156Z,3.40
2018-09-27T05:34:56.598Z,4.20
2018-09-27T05:35:43.038Z,3.40
2018-09-27T06:01:56.058Z,5.10
2018-09-27T06:18:28.395Z,4.60
2018-09-27T06:19:18.416Z,4.00
2018-09-27T06:21:21.216Z,3.90
2018-09-27T06:26:05.432Z,3.40
2018-09-27T06:35:25.182Z,4.60
2018-09-27T06:38:55.449Z,3.50
2018-09-27T06:39:56.020Z,3.30
2018-09-27T06:40:58.007Z,3.40
2018-09-27T06:42:56.150Z,3.60
2018-09-27T06:43:58.551Z,4.50
2018-09-27T06:44:59.306Z,3.30
2018-09-27T06:45:59.588Z,5.30
2018-09-27T07:18:29.265Z,5.10
2018-09-27T07:20:29.761Z,4.40
2018-09-27T07:21:32.956Z,2.80
2018-09-27T07:22:29.886Z,3.50
2018-09-27T07:23:32.251Z,3.40
2018-09-27T07:24:30.316Z,3.90
2018-09-27T07:25:30.859Z,4.00
2018-09-27T07:26:29.770Z,4.60
2018-09-27T07:27:28.155Z,3.80
2018-09-27T07:28:31.255Z,2.90
2018-09-27T07:29:30.907Z,4.00
2018-09-27T07:30:29.186Z,4.80
2018-09-27T07:31:28.603Z,4.70
2018-09-27T07:32:28.680Z,3.40
2018-09-27T07:33:29.512Z,3.60
2018-09-27T07:34:28.623Z,3.40
2018-09-27T07:35:30.033Z,4.80
2018-09-27T07:36:29.626Z,4.80
2018-09-27T07:37:30.992Z,3.10
2018-09-27T07:38:30.696Z,3.30
2018-09-27T07:39:30.038Z,3.70
2018-09-27T07:40:30.189Z,3.90
2018-09-27T07:42:30.333Z,4.00
2018-09-27T07:43:31.131Z,4.40
2018-09-27T07:44:31.403Z,3.50
2018-09-27T07:45:30.832Z,5.00
2018-09-27T07:46:30.825Z,4.50
2018-09-27T07:47:31.283Z,4.30
2018-09-27T07:48:31.728Z,4.30
2018-09-27T07:49:31.944Z,4.00
2018-09-27T07:50:31.495Z,4.50
2018-09-27T07:51:31.913Z,3.80
2018-09-27T07:52:32.014Z,3.30
2018-09-27T07:53:32.276Z,4.40
2018-09-27T07:54:32.344Z,3.90
2018-09-27T07:55:32.684Z,2.90
2018-09-27T07:56:32.221Z,4.00
2018-09-27T07:57:32.474Z,3.90
2018-09-27T07:58:32.752Z,3.90
2018-09-27T07:59:33.753Z,5.60
2018-09-27T08:00:33.053Z,5.00
2018-09-27T08:01:33.397Z,4.60
2018-09-27T08:02:34.182Z,5.70
2018-09-27T08:03:33.696Z,4.30
2018-09-27T08:04:35.860Z,5.80
2018-09-27T08:05:33.953Z,5.20
2018-09-27T08:06:34.245Z,4.00
2018-09-27T08:07:34.759Z,4.00
2018-09-27T08:08:34.418Z,6.30
2018-09-27T08:09:36.825Z,4.90
2018-09-27T08:10:35.185Z,4.80
2018-09-27T08:11:35.251Z,4.90
2018-09-27T08:12:35.245Z,6.50
2018-09-27T08:13:35.180Z,5.30
2018-09-27T08:14:48.948Z,8.50
2018-09-27T08:20:03.626Z,5.90
2018-09-27T08:49:22.780Z,4.90
2018-09-27T08:50:30.958Z,7.70
2018-09-27T08:57:08.336Z,5.40
2018-09-27T08:58:23.203Z,5.10
2018-09-27T08:59:06.122Z,5.20
2018-09-27T09:03:33.574Z,4.80
2018-09-27T09:07:25.647Z,4.40
2018-09-27T09:28:32.378Z,4.70
2018-09-27T10:31:07.091Z,2.40
2018-09-27T12:17:25.830Z,2.90
2018-09-27T12:29:52.702Z,2.00
2018-09-27T12:30:09.068Z,2.20
2018-09-27T12:59:50.592Z,2.20
2018-09-27T13:05:24.683Z,2.30
2018-09-27T13:07:37.282Z,2.00
2018-09-27T13:13:04.651Z,1.90
2018-09-27T13:14:48.250Z,2.00
2018-09-27T13:21:12.285Z,3.70
2018-09-27T13:28:20.962Z,2.40
2018-09-27T13:29:33.736Z,3.50
2018-09-27T13:32:10.102Z,2.70
2018-09-27T13:33:11.276Z,2.90
2018-09-27T13:34:10.680Z,2.20
2018-09-27T13:36:18.018Z,2.00
2018-09-27T13:37:12.528Z,2.80
2018-09-27T13:38:10.575Z,2.70
2018-09-27T13:39:11.034Z,2.40
2018-09-27T13:40:14.835Z,3.20
2018-09-27T13:41:11.538Z,2.10
2018-09-27T13:42:13.220Z,2.40
2018-09-27T13:43:11.700Z,3.40
2018-09-27T13:44:13.963Z,2.30
2018-09-27T13:45:12.306Z,2.40
2018-09-27T13:46:21.289Z,2.60
2018-09-27T13:47:20.073Z,2.70
2018-09-27T13:48:14.277Z,2.20
2018-09-27T13:49:20.334Z,3.50
2018-09-27T13:50:13.903Z,2.10
2018-09-27T13:51:12.642Z,3.30
2018-09-27T13:52:16.024Z,3.00
2018-09-27T13:53:13.986Z,2.50
2018-09-27T13:54:10.988Z,2.00
2018-09-27T13:55:11.136Z,2.70
2018-09-27T13:56:11.216Z,4.70
2018-09-27T13:57:11.506Z,2.00
2018-09-27T13:58:11.714Z,3.80
2018-09-27T13:59:11.869Z,3.20
2018-09-27T14:00:12.045Z,2.90
2018-09-27T14:01:12.273Z,3.30
2018-09-27T14:02:12.481Z,2.30
2018-09-27T14:03:12.607Z,2.10
2018-09-27T14:04:12.799Z,3.40
2018-09-27T14:06:13.041Z,3.30
2018-09-27T14:07:13.794Z,2.10
2018-09-27T14:08:13.808Z,1.90
2018-09-27T14:09:14.418Z,2.20
2018-09-27T14:10:14.035Z,1.80
2018-09-27T14:11:14.018Z,2.10
2018-09-27T14:12:14.272Z,2.00
2018-09-27T14:13:14.412Z,2.40
2018-09-27T14:14:14.620Z,2.20
2018-09-27T14:15:14.872Z,2.70
2018-09-27T14:16:15.058Z,1.70
2018-09-27T14:17:15.196Z,3.00
2018-09-27T14:18:15.380Z,2.70
2018-09-27T14:19:15.618Z,3.40
2018-09-27T14:20:15.872Z,2.30
2018-09-27T14:21:16.752Z,2.70
2018-09-27T14:22:16.142Z,2.30
2018-09-27T14:23:16.268Z,2.70
2018-09-27T14:24:16.420Z,3.50
2018-09-27T14:25:16.672Z,3.30
2018-09-27T14:26:17.001Z,2.90
2018-09-27T14:27:16.997Z,1.70
2018-09-27T14:28:17.237Z,2.30
2018-09-27T14:29:17.461Z,1.60
2018-09-27T14:30:17.571Z,1.90
2018-09-27T14:31:17.840Z,2.00
2018-09-27T14:32:18.040Z,1.70
2018-09-27T14:33:18.179Z,2.20
2018-09-27T14:34:18.375Z,2.20
2018-09-27T14:35:18.575Z,2.30
2018-09-27T14:36:18.744Z,1.60
2018-09-27T14:37:18.986Z,2.40
2018-09-27T14:38:19.127Z,2.70
2018-09-27T14:39:19.351Z,2.10
2018-09-27T14:40:19.504Z,2.00
2018-09-27T14:41:19.631Z,2.10
2018-09-27T14:42:19.835Z,1.90
2018-09-27T14:43:19.994Z,1.80
2018-09-27T14:44:20.227Z,2.20
2018-09-27T14:45:20.351Z,1.80
2018-09-27T14:46:20.628Z,3.00
2018-09-27T14:47:20.997Z,2.90
2018-09-27T14:48:21.108Z,1.70
2018-09-27T14:49:21.287Z,2.70
2018-09-27T14:50:21.884Z,2.00
2018-09-27T14:51:21.504Z,2.80
2018-09-27T14:52:21.724Z,3.90
2018-09-27T14:53:22.650Z,2.10
2018-09-27T14:54:22.117Z,2.10
2018-09-27T14:55:22.405Z,2.40
2018-09-27T14:56:24.016Z,1.70
2018-09-27T14:57:22.759Z,2.40
2018-09-27T14:58:23.180Z,2.30
2018-09-27T14:59:22.985Z,2.90
2018-09-27T15:00:23.802Z,2.00
2018-09-27T15:01:23.517Z,3.70
2018-09-27T15:02:23.613Z,2.60
2018-09-27T15:03:23.906Z,4.50
2018-09-27T15:04:23.823Z,2.70
2018-09-27T15:05:24.328Z,1.50
2018-09-27T15:06:30.374Z,1.80
2018-09-27T15:07:25.114Z,3.30
2018-09-27T15:13:03.163Z,2.20
2018-09-27T15:19:36.975Z,1.80
2018-09-27T16:09:58.999Z,1.30
2018-09-27T17:10:05.930Z,2.30
2018-09-27T17:12:20.459Z,2.90
2018-09-27T17:41:20.916Z,18.40
2018-09-27T17:50:37.882Z,10.50
2018-09-27T17:51:37.247Z,10.20
2018-09-27T17:55:15.961Z,8.20
2018-09-27T17:59:29.197Z,7.50
2018-09-27T18:00:08.371Z,7.60
2018-09-27T18:01:12.963Z,8.10
2018-09-27T18:02:29.555Z,6.40
2018-09-27T18:03:29.257Z,6.90
2018-09-27T18:04:27.096Z,6.90
2018-09-27T18:05:27.231Z,7.00
2018-09-27T18:06:28.575Z,6.50
2018-09-27T18:07:27.666Z,7.20
2018-09-27T18:08:27.310Z,7.30
2018-09-27T18:09:27.967Z,6.50
2018-09-27T18:10:29.709Z,5.60
2018-09-27T18:11:29.853Z,5.50
2018-09-27T18:12:28.044Z,4.30
2018-09-27T18:13:28.864Z,4.20
2018-09-27T18:14:28.922Z,4.30
2018-09-27T18:15:30.148Z,3.60
2018-09-27T18:16:28.699Z,4.30
2018-09-27T18:17:29.258Z,3.40
2018-09-27T18:18:33.168Z,3.70
